Startpagina
METAR-TAF:

METAR-TAF

Vliegvelden :

Boulder, Colorado, Verenigde Staten

breedte: 40-02-22N, lengte: 105-13-33W, hoogte: 1612 m

Actueel weer

Dit bericht is 18 minuten geleden gemaakt, om 02:12 UTC
Wind 8 kt uit het oostzuidoosten
Temperatuur 23°C
Vochtigheid 57%
Druk 1023 hPa
Zicht: 16.1 km
Verspreide wolken op 12000 ft

METAR: KBDU 180212Z AUTO 11008KT 10SM SCT120 23/14 A3022 RMK AO2 LTG DSNT SE

Tijdstip: 20:30 (02:30 UTC)


TAF: ontbreekt

Waarnemingen en weersverwachtingen van meer dan 4000 vliegvelden (METAR en TAF).

De beschikbare stations zijn de gele en rode punten op de kaart.

Ga met uw muis naar het station om de naam te zien.

Klik dan om waarnemingen en weersverwachtingen te zien.

kaart wijzigen: klik op de groene knoppen met een zwart kruis om in te zoomen, op de groene knop met een streepje om uit te zoomen of op de groene pijlen voor aangrenzende kaarten.


METAR-TAF: